sensor_id;sensor_type;location;lat;lon;timestamp;temperature;humidity
15203;DHT22;7702;51.046;5.184;2022-08-21T00:02:24;14.60;99.90
15203;DHT22;7702;51.046;5.184;2022-08-21T00:04:51;14.50;99.90
15203;DHT22;7702;51.046;5.184;2022-08-21T00:07:19;14.50;99.90
15203;DHT22;7702;51.046;5.184;2022-08-21T00:09:45;14.50;99.90
15203;DHT22;7702;51.046;5.184;2022-08-21T00:12:11;14.60;99.90
15203;DHT22;7702;51.046;5.184;2022-08-21T00:14:37;14.50;99.90
15203;DHT22;7702;51.046;5.184;2022-08-21T00:17:04;14.40;99.90
15203;DHT22;7702;51.046;5.184;2022-08-21T00:19:32;14.40;99.90
15203;DHT22;7702;51.046;5.184;2022-08-21T00:21:59;14.50;99.90
15203;DHT22;7702;51.046;5.184;2022-08-21T00:24:25;14.40;99.90
15203;DHT22;7702;51.046;5.184;2022-08-21T00:26:52;14.40;99.90
15203;DHT22;7702;51.046;5.184;2022-08-21T00:29:18;14.30;99.90
15203;DHT22;7702;51.046;5.184;2022-08-21T00:31:44;14.30;99.90
15203;DHT22;7702;51.046;5.184;2022-08-21T00:34:11;14.20;99.90
15203;DHT22;7702;51.046;5.184;2022-08-21T00:36:37;14.20;99.90
15203;DHT22;7702;51.046;5.184;2022-08-21T00:39:05;14.10;99.90
15203;DHT22;7702;51.046;5.184;2022-08-21T00:41:31;14.10;99.90
15203;DHT22;7702;51.046;5.184;2022-08-21T00:43:57;14.10;99.90
15203;DHT22;7702;51.046;5.184;2022-08-21T00:46:24;14.00;99.90
15203;DHT22;7702;51.046;5.184;2022-08-21T00:48:49;14.00;99.90
15203;DHT22;7702;51.046;5.184;2022-08-21T00:51:18;13.90;99.90
15203;DHT22;7702;51.046;5.184;2022-08-21T00:53:53;13.90;99.90
15203;DHT22;7702;51.046;5.184;2022-08-21T00:56:21;13.90;99.90
15203;DHT22;7702;51.046;5.184;2022-08-21T00:58:49;13.80;99.90
15203;DHT22;7702;51.046;5.184;2022-08-21T01:01:15;13.80;99.90
15203;DHT22;7702;51.046;5.184;2022-08-21T01:03:41;13.80;99.90
15203;DHT22;7702;51.046;5.184;2022-08-21T01:06:08;13.70;99.90
15203;DHT22;7702;51.046;5.184;2022-08-21T01:08:35;13.70;99.90
15203;DHT22;7702;51.046;5.184;2022-08-21T01:11:01;13.70;99.90
15203;DHT22;7702;51.046;5.184;2022-08-21T01:13:31;13.70;99.90
15203;DHT22;7702;51.046;5.184;2022-08-21T01:15:59;13.70;99.90
15203;DHT22;7702;51.046;5.184;2022-08-21T01:18:26;13.70;99.90
15203;DHT22;7702;51.046;5.184;2022-08-21T01:23:27;13.70;99.90
15203;DHT22;7702;51.046;5.184;2022-08-21T01:25:53;13.70;99.90
15203;DHT22;7702;51.046;5.184;2022-08-21T01:28:19;13.70;99.90
15203;DHT22;7702;51.046;5.184;2022-08-21T01:30:46;13.70;99.90
15203;DHT22;7702;51.046;5.184;2022-08-21T01:33:13;13.70;99.90
15203;DHT22;7702;51.046;5.184;2022-08-21T01:35:39;13.60;99.90
15203;DHT22;7702;51.046;5.184;2022-08-21T01:38:05;13.50;99.90
15203;DHT22;7702;51.046;5.184;2022-08-21T01:40:31;13.50;99.90
15203;DHT22;7702;51.046;5.184;2022-08-21T01:42:57;13.50;99.90
15203;DHT22;7702;51.046;5.184;2022-08-21T01:45:23;13.40;99.90
15203;DHT22;7702;51.046;5.184;2022-08-21T01:47:48;13.40;99.90
15203;DHT22;7702;51.046;5.184;2022-08-21T01:50:16;13.30;99.90
15203;DHT22;7702;51.046;5.184;2022-08-21T01:52:42;13.30;99.90
15203;DHT22;7702;51.046;5.184;2022-08-21T01:55:10;13.30;99.90
15203;DHT22;7702;51.046;5.184;2022-08-21T01:57:36;13.30;99.90
15203;DHT22;7702;51.046;5.184;2022-08-21T02:00:05;13.30;99.90
15203;DHT22;7702;51.046;5.184;2022-08-21T02:02:31;13.30;99.90
15203;DHT22;7702;51.046;5.184;2022-08-21T02:04:57;13.20;99.90
15203;DHT22;7702;51.046;5.184;2022-08-21T02:07:23;13.30;99.90
15203;DHT22;7702;51.046;5.184;2022-08-21T02:09:48;13.20;99.90
15203;DHT22;7702;51.046;5.184;2022-08-21T02:12:14;13.20;99.90
15203;DHT22;7702;51.046;5.184;2022-08-21T02:14:40;13.20;99.90
15203;DHT22;7702;51.046;5.184;2022-08-21T02:17:06;13.20;99.90
15203;DHT22;7702;51.046;5.184;2022-08-21T02:19:31;13.20;99.90
15203;DHT22;7702;51.046;5.184;2022-08-21T02:21:57;13.10;99.90
15203;DHT22;7702;51.046;5.184;2022-08-21T02:24:22;13.10;99.90
15203;DHT22;7702;51.046;5.184;2022-08-21T02:26:48;13.10;99.90
15203;DHT22;7702;51.046;5.184;2022-08-21T02:29:14;13.00;99.90
15203;DHT22;7702;51.046;5.184;2022-08-21T02:31:39;13.00;99.90
15203;DHT22;7702;51.046;5.184;2022-08-21T02:34:05;13.00;99.90
15203;DHT22;7702;51.046;5.184;2022-08-21T02:36:31;13.00;99.90
15203;DHT22;7702;51.046;5.184;2022-08-21T02:38:57;13.00;99.90
15203;DHT22;7702;51.046;5.184;2022-08-21T02:41:23;13.00;99.90
15203;DHT22;7702;51.046;5.184;2022-08-21T02:43:49;13.00;99.90
15203;DHT22;7702;51.046;5.184;2022-08-21T02:46:18;12.90;99.90
15203;DHT22;7702;51.046;5.184;2022-08-21T02:48:45;12.90;99.90
15203;DHT22;7702;51.046;5.184;2022-08-21T02:51:14;12.80;99.90
15203;DHT22;7702;51.046;5.184;2022-08-21T02:53:41;12.90;99.90
15203;DHT22;7702;51.046;5.184;2022-08-21T02:56:09;12.90;99.90
15203;DHT22;7702;51.046;5.184;2022-08-21T02:58:40;12.90;99.90
15203;DHT22;7702;51.046;5.184;2022-08-21T03:01:07;12.90;99.90
15203;DHT22;7702;51.046;5.184;2022-08-21T03:03:35;12.80;99.90
15203;DHT22;7702;51.046;5.184;2022-08-21T03:06:01;12.80;99.90
15203;DHT22;7702;51.046;5.184;2022-08-21T03:08:27;12.70;99.90
15203;DHT22;7702;51.046;5.184;2022-08-21T03:10:52;12.70;99.90
15203;DHT22;7702;51.046;5.184;2022-08-21T03:13:19;12.80;99.90
15203;DHT22;7702;51.046;5.184;2022-08-21T03:15:47;12.70;99.90
15203;DHT22;7702;51.046;5.184;2022-08-21T03:18:13;12.70;99.90
15203;DHT22;7702;51.046;5.184;2022-08-21T03:20:40;12.70;99.90
15203;DHT22;7702;51.046;5.184;2022-08-21T03:23:07;12.70;99.90
15203;DHT22;7702;51.046;5.184;2022-08-21T03:25:34;12.60;99.90
15203;DHT22;7702;51.046;5.184;2022-08-21T03:28:01;12.60;99.90
15203;DHT22;7702;51.046;5.184;2022-08-21T03:30:27;12.60;99.90
15203;DHT22;7702;51.046;5.184;2022-08-21T03:32:53;12.60;99.90
15203;DHT22;7702;51.046;5.184;2022-08-21T03:35:20;12.60;99.90
15203;DHT22;7702;51.046;5.184;2022-08-21T03:37:47;12.60;99.90
15203;DHT22;7702;51.046;5.184;2022-08-21T03:40:15;12.60;99.90
15203;DHT22;7702;51.046;5.184;2022-08-21T03:42:41;12.60;99.90
15203;DHT22;7702;51.046;5.184;2022-08-21T03:45:07;12.50;99.90
15203;DHT22;7702;51.046;5.184;2022-08-21T03:47:33;12.50;99.90
15203;DHT22;7702;51.046;5.184;2022-08-21T03:49:59;12.60;99.90
15203;DHT22;7702;51.046;5.184;2022-08-21T03:52:25;12.60;99.90
15203;DHT22;7702;51.046;5.184;2022-08-21T03:54:51;12.60;99.90
15203;DHT22;7702;51.046;5.184;2022-08-21T03:57:16;12.70;99.90
15203;DHT22;7702;51.046;5.184;2022-08-21T03:59:42;12.60;99.90
15203;DHT22;7702;51.046;5.184;2022-08-21T04:02:09;12.70;99.90
15203;DHT22;7702;51.046;5.184;2022-08-21T04:04:35;12.70;99.90
15203;DHT22;7702;51.046;5.184;2022-08-21T04:07:02;12.60;99.90
15203;DHT22;7702;51.046;5.184;2022-08-21T04:09:28;12.60;99.90
15203;DHT22;7702;51.046;5.184;2022-08-21T04:11:53;12.50;99.90
15203;DHT22;7702;51.046;5.184;2022-08-21T04:14:20;12.50;99.90
15203;DHT22;7702;51.046;5.184;2022-08-21T04:16:45;12.50;99.90
15203;DHT22;7702;51.046;5.184;2022-08-21T04:19:12;12.50;99.90
15203;DHT22;7702;51.046;5.184;2022-08-21T04:21:39;12.50;99.90
15203;DHT22;7702;51.046;5.184;2022-08-21T04:24:07;12.50;99.90
15203;DHT22;7702;51.046;5.184;2022-08-21T04:26:36;12.50;99.90
15203;DHT22;7702;51.046;5.184;2022-08-21T04:29:03;12.40;99.90
15203;DHT22;7702;51.046;5.184;2022-08-21T04:31:32;12.30;99.90
15203;DHT22;7702;51.046;5.184;2022-08-21T04:33:58;12.30;99.90
15203;DHT22;7702;51.046;5.184;2022-08-21T04:36:24;12.20;99.90
15203;DHT22;7702;51.046;5.184;2022-08-21T04:38:50;12.20;99.90
15203;DHT22;7702;51.046;5.184;2022-08-21T04:41:16;12.20;99.90
15203;DHT22;7702;51.046;5.184;2022-08-21T04:43:42;12.20;99.90
15203;DHT22;7702;51.046;5.184;2022-08-21T04:46:08;12.20;99.90
15203;DHT22;7702;51.046;5.184;2022-08-21T04:48:34;12.20;99.90
15203;DHT22;7702;51.046;5.184;2022-08-21T04:53:54;12.20;99.90
15203;DHT22;7702;51.046;5.184;2022-08-21T04:56:30;12.30;99.90
15203;DHT22;7702;51.046;5.184;2022-08-21T04:58:59;12.20;99.90
15203;DHT22;7702;51.046;5.184;2022-08-21T05:01:29;12.20;99.90
15203;DHT22;7702;51.046;5.184;2022-08-21T05:03:58;12.20;99.90
15203;DHT22;7702;51.046;5.184;2022-08-21T05:06:24;12.30;99.90
15203;DHT22;7702;51.046;5.184;2022-08-21T05:08:53;12.40;99.90
15203;DHT22;7702;51.046;5.184;2022-08-21T05:11:20;12.40;99.90
15203;DHT22;7702;51.046;5.184;2022-08-21T05:13:48;12.50;99.90
15203;DHT22;7702;51.046;5.184;2022-08-21T05:16:14;12.60;99.90
15203;DHT22;7702;51.046;5.184;2022-08-21T05:18:41;12.70;99.90
15203;DHT22;7702;51.046;5.184;2022-08-21T05:21:07;12.70;99.90
15203;DHT22;7702;51.046;5.184;2022-08-21T05:23:33;12.70;99.90
15203;DHT22;7702;51.046;5.184;2022-08-21T05:26:00;12.80;99.90
15203;DHT22;7702;51.046;5.184;2022-08-21T05:28:27;12.90;99.90
15203;DHT22;7702;51.046;5.184;2022-08-21T05:30:53;13.00;99.90
15203;DHT22;7702;51.046;5.184;2022-08-21T05:33:19;13.00;99.90
15203;DHT22;7702;51.046;5.184;2022-08-21T05:35:45;13.10;99.90
15203;DHT22;7702;51.046;5.184;2022-08-21T05:38:11;13.10;99.90
15203;DHT22;7702;51.046;5.184;2022-08-21T05:40:37;13.20;99.90
15203;DHT22;7702;51.046;5.184;2022-08-21T05:43:03;13.30;99.90
15203;DHT22;7702;51.046;5.184;2022-08-21T05:45:30;13.50;99.90
15203;DHT22;7702;51.046;5.184;2022-08-21T05:47:57;13.50;99.90
15203;DHT22;7702;51.046;5.184;2022-08-21T05:50:22;13.70;99.90
15203;DHT22;7702;51.046;5.184;2022-08-21T05:52:48;13.80;99.90
15203;DHT22;7702;51.046;5.184;2022-08-21T05:55:14;14.00;99.90
15203;DHT22;7702;51.046;5.184;2022-08-21T05:57:40;14.10;99.90
15203;DHT22;7702;51.046;5.184;2022-08-21T06:00:08;14.20;99.90
15203;DHT22;7702;51.046;5.184;2022-08-21T06:02:35;14.30;99.90
15203;DHT22;7702;51.046;5.184;2022-08-21T06:05:02;14.50;99.90
15203;DHT22;7702;51.046;5.184;2022-08-21T06:07:27;14.70;99.90
15203;DHT22;7702;51.046;5.184;2022-08-21T06:09:54;14.80;99.90
15203;DHT22;7702;51.046;5.184;2022-08-21T06:12:20;14.90;99.90
15203;DHT22;7702;51.046;5.184;2022-08-21T06:14:45;15.10;99.90
15203;DHT22;7702;51.046;5.184;2022-08-21T06:17:12;15.10;99.90
15203;DHT22;7702;51.046;5.184;2022-08-21T06:19:39;15.30;99.90
15203;DHT22;7702;51.046;5.184;2022-08-21T06:22:05;15.40;99.90
15203;DHT22;7702;51.046;5.184;2022-08-21T06:24:31;15.60;99.90
15203;DHT22;7702;51.046;5.184;2022-08-21T06:26:57;15.80;99.90
15203;DHT22;7702;51.046;5.184;2022-08-21T06:29:23;15.80;99.90
15203;DHT22;7702;51.046;5.184;2022-08-21T06:31:50;16.00;99.90
15203;DHT22;7702;51.046;5.184;2022-08-21T06:34:17;16.10;99.90
15203;DHT22;7702;51.046;5.184;2022-08-21T06:36:43;16.20;99.90
15203;DHT22;7702;51.046;5.184;2022-08-21T06:39:09;16.30;99.90
15203;DHT22;7702;51.046;5.184;2022-08-21T06:41:35;16.50;99.90
15203;DHT22;7702;51.046;5.184;2022-08-21T06:44:01;16.60;99.90
15203;DHT22;7702;51.046;5.184;2022-08-21T06:46:29;16.70;99.90
15203;DHT22;7702;51.046;5.184;2022-08-21T06:48:56;16.90;99.90
15203;DHT22;7702;51.046;5.184;2022-08-21T06:51:22;17.00;99.90
15203;DHT22;7702;51.046;5.184;2022-08-21T06:53:48;17.20;99.90
15203;DHT22;7702;51.046;5.184;2022-08-21T06:56:14;17.20;99.90
15203;DHT22;7702;51.046;5.184;2022-08-21T06:58:41;17.30;99.90
15203;DHT22;7702;51.046;5.184;2022-08-21T07:01:06;17.50;99.90
15203;DHT22;7702;51.046;5.184;2022-08-21T07:03:38;17.70;99.90
15203;DHT22;7702;51.046;5.184;2022-08-21T07:06:05;17.90;99.90
15203;DHT22;7702;51.046;5.184;2022-08-21T07:08:31;18.00;99.90
15203;DHT22;7702;51.046;5.184;2022-08-21T07:10:59;18.00;99.90
15203;DHT22;7702;51.046;5.184;2022-08-21T07:13:26;18.10;99.90
15203;DHT22;7702;51.046;5.184;2022-08-21T07:15:52;18.20;99.90
15203;DHT22;7702;51.046;5.184;2022-08-21T07:18:18;18.30;99.90
15203;DHT22;7702;51.046;5.184;2022-08-21T07:20:45;18.50;99.90
15203;DHT22;7702;51.046;5.184;2022-08-21T07:23:32;18.90;99.90
15203;DHT22;7702;51.046;5.184;2022-08-21T07:25:59;19.10;99.90
15203;DHT22;7702;51.046;5.184;2022-08-21T07:28:26;19.20;99.90
15203;DHT22;7702;51.046;5.184;2022-08-21T07:30:54;19.30;99.90
15203;DHT22;7702;51.046;5.184;2022-08-21T07:33:21;19.20;99.90
15203;DHT22;7702;51.046;5.184;2022-08-21T07:35:47;19.10;99.90
15203;DHT22;7702;51.046;5.184;2022-08-21T07:38:13;19.20;99.90
15203;DHT22;7702;51.046;5.184;2022-08-21T07:40:39;19.00;99.90
15203;DHT22;7702;51.046;5.184;2022-08-21T07:43:05;18.90;99.90
15203;DHT22;7702;51.046;5.184;2022-08-21T07:45:31;19.00;99.90
15203;DHT22;7702;51.046;5.184;2022-08-21T07:47:57;19.20;99.90
15203;DHT22;7702;51.046;5.184;2022-08-21T07:50:23;19.50;99.90
15203;DHT22;7702;51.046;5.184;2022-08-21T07:52:49;19.80;99.90
15203;DHT22;7702;51.046;5.184;2022-08-21T07:55:17;19.90;99.90
15203;DHT22;7702;51.046;5.184;2022-08-21T07:57:43;20.20;99.90
15203;DHT22;7702;51.046;5.184;2022-08-21T08:00:14;20.40;99.90
15203;DHT22;7702;51.046;5.184;2022-08-21T08:02:40;20.60;99.90
15203;DHT22;7702;51.046;5.184;2022-08-21T08:05:09;20.60;99.90
15203;DHT22;7702;51.046;5.184;2022-08-21T08:07:36;20.80;99.90
15203;DHT22;7702;51.046;5.184;2022-08-21T08:10:04;20.70;99.90
15203;DHT22;7702;51.046;5.184;2022-08-21T08:12:30;21.10;99.90
15203;DHT22;7702;51.046;5.184;2022-08-21T08:14:57;21.20;99.90
15203;DHT22;7702;51.046;5.184;2022-08-21T08:17:25;21.20;99.90
15203;DHT22;7702;51.046;5.184;2022-08-21T08:19:51;21.40;99.90
15203;DHT22;7702;51.046;5.184;2022-08-21T08:22:18;21.30;99.90
15203;DHT22;7702;51.046;5.184;2022-08-21T08:24:48;21.10;99.90
15203;DHT22;7702;51.046;5.184;2022-08-21T08:27:14;21.20;99.90
15203;DHT22;7702;51.046;5.184;2022-08-21T08:29:40;21.60;99.90
15203;DHT22;7702;51.046;5.184;2022-08-21T08:32:06;21.70;99.90
15203;DHT22;7702;51.046;5.184;2022-08-21T08:34:36;21.90;99.90
15203;DHT22;7702;51.046;5.184;2022-08-21T08:37:02;22.10;99.90
15203;DHT22;7702;51.046;5.184;2022-08-21T08:39:29;22.40;99.90
15203;DHT22;7702;51.046;5.184;2022-08-21T08:42:07;22.40;99.90
15203;DHT22;7702;51.046;5.184;2022-08-21T08:44:36;22.20;99.90
15203;DHT22;7702;51.046;5.184;2022-08-21T08:47:03;22.60;99.90
15203;DHT22;7702;51.046;5.184;2022-08-21T08:50:05;22.80;99.90
15203;DHT22;7702;51.046;5.184;2022-08-21T08:52:31;22.60;99.90
15203;DHT22;7702;51.046;5.184;2022-08-21T08:55:03;22.20;99.90
15203;DHT22;7702;51.046;5.184;2022-08-21T08:57:31;22.30;99.90
15203;DHT22;7702;51.046;5.184;2022-08-21T08:59:59;22.60;99.90
15203;DHT22;7702;51.046;5.184;2022-08-21T09:02:25;22.80;99.90
15203;DHT22;7702;51.046;5.184;2022-08-21T09:04:55;23.00;99.90
15203;DHT22;7702;51.046;5.184;2022-08-21T09:07:40;22.90;99.90
15203;DHT22;7702;51.046;5.184;2022-08-21T09:10:22;22.80;99.90
15203;DHT22;7702;51.046;5.184;2022-08-21T09:13:19;22.60;99.90
15203;DHT22;7702;51.046;5.184;2022-08-21T09:16:07;22.40;99.90
15203;DHT22;7702;51.046;5.184;2022-08-21T09:26:43;22.90;99.90
15203;DHT22;7702;51.046;5.184;2022-08-21T09:29:11;23.10;99.90
15203;DHT22;7702;51.046;5.184;2022-08-21T09:31:37;23.60;99.90
15203;DHT22;7702;51.046;5.184;2022-08-21T09:34:09;23.70;99.90
15203;DHT22;7702;51.046;5.184;2022-08-21T09:36:47;23.90;99.90
15203;DHT22;7702;51.046;5.184;2022-08-21T09:39:38;23.50;99.90
15203;DHT22;7702;51.046;5.184;2022-08-21T09:42:05;23.40;99.90
15203;DHT22;7702;51.046;5.184;2022-08-21T09:44:34;23.30;99.90
15203;DHT22;7702;51.046;5.184;2022-08-21T09:47:05;23.40;99.90
15203;DHT22;7702;51.046;5.184;2022-08-21T09:49:34;23.20;99.90
15203;DHT22;7702;51.046;5.184;2022-08-21T09:52:00;23.80;99.90
15203;DHT22;7702;51.046;5.184;2022-08-21T09:54:39;24.10;99.90
15203;DHT22;7702;51.046;5.184;2022-08-21T09:59:52;23.10;99.90
15203;DHT22;7702;51.046;5.184;2022-08-21T10:02:34;23.50;99.90
15203;DHT22;7702;51.046;5.184;2022-08-21T10:05:08;23.60;99.90
15203;DHT22;7702;51.046;5.184;2022-08-21T10:07:40;24.10;99.90
15203;DHT22;7702;51.046;5.184;2022-08-21T10:18:35;23.50;99.90
15203;DHT22;7702;51.046;5.184;2022-08-21T10:26:51;24.90;99.90
15203;DHT22;7702;51.046;5.184;2022-08-21T10:29:42;25.20;99.90
15203;DHT22;7702;51.046;5.184;2022-08-21T10:35:14;24.70;99.90
15203;DHT22;7702;51.046;5.184;2022-08-21T10:38:05;23.70;99.90
15203;DHT22;7702;51.046;5.184;2022-08-21T10:40:42;23.50;99.90
15203;DHT22;7702;51.046;5.184;2022-08-21T10:43:25;23.50;99.90
15203;DHT22;7702;51.046;5.184;2022-08-21T10:48:59;24.40;99.90
15203;DHT22;7702;51.046;5.184;2022-08-21T10:52:49;24.30;99.90
15203;DHT22;7702;51.046;5.184;2022-08-21T10:54:59;24.10;99.90
15203;DHT22;7702;51.046;5.184;2022-08-21T10:57:52;23.70;99.90
15203;DHT22;7702;51.046;5.184;2022-08-21T11:00:26;23.90;99.90
15203;DHT22;7702;51.046;5.184;2022-08-21T11:05:33;25.00;99.90
15203;DHT22;7702;51.046;5.184;2022-08-21T11:08:04;25.20;99.90
15203;DHT22;7702;51.046;5.184;2022-08-21T11:16:00;26.70;99.90
15203;DHT22;7702;51.046;5.184;2022-08-21T11:18:38;26.70;99.90
15203;DHT22;7702;51.046;5.184;2022-08-21T11:21:43;26.70;99.90
15203;DHT22;7702;51.046;5.184;2022-08-21T11:24:24;27.10;99.90
15203;DHT22;7702;51.046;5.184;2022-08-21T11:29:59;27.50;99.90
15203;DHT22;7702;51.046;5.184;2022-08-21T11:33:09;28.20;99.90
15203;DHT22;7702;51.046;5.184;2022-08-21T11:51:55;24.60;99.90
15203;DHT22;7702;51.046;5.184;2022-08-21T12:02:31;26.40;99.90
15203;DHT22;7702;51.046;5.184;2022-08-21T12:05:06;27.30;99.90
15203;DHT22;7702;51.046;5.184;2022-08-21T12:07:41;26.90;99.90
15203;DHT22;7702;51.046;5.184;2022-08-21T12:10:14;26.10;99.90
15203;DHT22;7702;51.046;5.184;2022-08-21T12:12:42;25.00;99.90
15203;DHT22;7702;51.046;5.184;2022-08-21T12:18:20;24.30;99.90
15203;DHT22;7702;51.046;5.184;2022-08-21T12:21:01;24.70;99.90
15203;DHT22;7702;51.046;5.184;2022-08-21T12:23:46;25.00;99.90
15203;DHT22;7702;51.046;5.184;2022-08-21T12:26:17;25.50;99.90
15203;DHT22;7702;51.046;5.184;2022-08-21T12:28:45;25.70;99.90
15203;DHT22;7702;51.046;5.184;2022-08-21T12:31:19;26.30;99.90
15203;DHT22;7702;51.046;5.184;2022-08-21T12:33:51;26.40;99.90
15203;DHT22;7702;51.046;5.184;2022-08-21T12:36:21;25.40;99.90
15203;DHT22;7702;51.046;5.184;2022-08-21T12:38:51;25.50;99.90
15203;DHT22;7702;51.046;5.184;2022-08-21T12:41:27;26.10;99.90
15203;DHT22;7702;51.046;5.184;2022-08-21T12:44:16;26.60;99.90
15203;DHT22;7702;51.046;5.184;2022-08-21T12:46:58;26.20;99.90
15203;DHT22;7702;51.046;5.184;2022-08-21T12:49:33;26.80;99.90
15203;DHT22;7702;51.046;5.184;2022-08-21T12:54:29;27.50;99.90
15203;DHT22;7702;51.046;5.184;2022-08-21T12:57:03;27.70;99.90
15203;DHT22;7702;51.046;5.184;2022-08-21T12:59:30;27.90;99.90
15203;DHT22;7702;51.046;5.184;2022-08-21T13:01:58;27.70;99.90
15203;DHT22;7702;51.046;5.184;2022-08-21T13:04:36;27.70;99.90
15203;DHT22;7702;51.046;5.184;2022-08-21T13:07:07;27.50;99.90
15203;DHT22;7702;51.046;5.184;2022-08-21T13:09:51;27.00;99.90
15203;DHT22;7702;51.046;5.184;2022-08-21T13:12:19;27.10;99.90
15203;DHT22;7702;51.046;5.184;2022-08-21T13:14:46;27.30;99.90
15203;DHT22;7702;51.046;5.184;2022-08-21T13:17:16;27.70;99.90
15203;DHT22;7702;51.046;5.184;2022-08-21T13:19:56;28.20;99.90
15203;DHT22;7702;51.046;5.184;2022-08-21T13:22:21;29.00;99.90
15203;DHT22;7702;51.046;5.184;2022-08-21T13:24:48;29.30;99.90
15203;DHT22;7702;51.046;5.184;2022-08-21T13:27:23;29.30;99.50
15203;DHT22;7702;51.046;5.184;2022-08-21T13:30:00;29.10;99.90
15203;DHT22;7702;51.046;5.184;2022-08-21T13:32:27;28.90;99.20
15203;DHT22;7702;51.046;5.184;2022-08-21T13:34:55;29.10;99.90
15203;DHT22;7702;51.046;5.184;2022-08-21T13:37:23;28.70;99.90
15203;DHT22;7702;51.046;5.184;2022-08-21T13:39:52;27.80;99.50
15203;DHT22;7702;51.046;5.184;2022-08-21T13:42:18;28.30;99.90
15203;DHT22;7702;51.046;5.184;2022-08-21T13:44:46;27.50;99.90
15203;DHT22;7702;51.046;5.184;2022-08-21T13:47:14;26.70;99.90
15203;DHT22;7702;51.046;5.184;2022-08-21T13:49:43;26.10;99.90
15203;DHT22;7702;51.046;5.184;2022-08-21T13:52:20;25.70;99.90
15203;DHT22;7702;51.046;5.184;2022-08-21T13:54:56;25.50;99.90
15203;DHT22;7702;51.046;5.184;2022-08-21T13:57:33;26.10;99.90
15203;DHT22;7702;51.046;5.184;2022-08-21T14:00:25;26.50;99.90
15203;DHT22;7702;51.046;5.184;2022-08-21T14:02:53;26.60;99.90
15203;DHT22;7702;51.046;5.184;2022-08-21T14:05:26;26.40;99.90
15203;DHT22;7702;51.046;5.184;2022-08-21T14:10:42;26.30;99.90
15203;DHT22;7702;51.046;5.184;2022-08-21T14:13:29;26.40;99.90
15203;DHT22;7702;51.046;5.184;2022-08-21T14:16:01;26.00;99.90
15203;DHT22;7702;51.046;5.184;2022-08-21T14:18:27;25.80;99.90
15203;DHT22;7702;51.046;5.184;2022-08-21T14:21:08;25.70;99.90
15203;DHT22;7702;51.046;5.184;2022-08-21T14:23:34;25.90;99.90
15203;DHT22;7702;51.046;5.184;2022-08-21T14:26:04;25.70;99.90
15203;DHT22;7702;51.046;5.184;2022-08-21T14:28:31;26.40;99.90
15203;DHT22;7702;51.046;5.184;2022-08-21T14:30:58;26.80;99.90
15203;DHT22;7702;51.046;5.184;2022-08-21T14:33:35;27.50;99.90
15203;DHT22;7702;51.046;5.184;2022-08-21T14:36:01;28.10;99.90
15203;DHT22;7702;51.046;5.184;2022-08-21T14:38:28;27.60;99.90
15203;DHT22;7702;51.046;5.184;2022-08-21T14:41:04;28.10;99.90
15203;DHT22;7702;51.046;5.184;2022-08-21T14:43:32;28.50;99.90
15203;DHT22;7702;51.046;5.184;2022-08-21T14:46:00;29.10;98.90
15203;DHT22;7702;51.046;5.184;2022-08-21T14:48:26;28.80;99.40
15203;DHT22;7702;51.046;5.184;2022-08-21T14:50:52;28.50;99.90
15203;DHT22;7702;51.046;5.184;2022-08-21T14:53:18;28.60;99.20
15203;DHT22;7702;51.046;5.184;2022-08-21T14:55:43;28.20;99.90
15203;DHT22;7702;51.046;5.184;2022-08-21T14:58:28;27.80;99.90
15203;DHT22;7702;51.046;5.184;2022-08-21T15:00:54;26.90;99.90
15203;DHT22;7702;51.046;5.184;2022-08-21T15:03:21;26.90;99.90
15203;DHT22;7702;51.046;5.184;2022-08-21T15:05:48;26.70;99.90
15203;DHT22;7702;51.046;5.184;2022-08-21T15:08:14;26.40;99.90
15203;DHT22;7702;51.046;5.184;2022-08-21T15:10:40;25.90;99.90
15203;DHT22;7702;51.046;5.184;2022-08-21T15:13:06;25.70;99.90
15203;DHT22;7702;51.046;5.184;2022-08-21T15:15:39;25.90;99.90
15203;DHT22;7702;51.046;5.184;2022-08-21T15:18:05;25.90;99.90
15203;DHT22;7702;51.046;5.184;2022-08-21T15:20:31;26.20;99.90
15203;DHT22;7702;51.046;5.184;2022-08-21T15:22:57;26.00;99.90
15203;DHT22;7702;51.046;5.184;2022-08-21T15:25:23;26.00;99.90
15203;DHT22;7702;51.046;5.184;2022-08-21T15:27:49;26.10;99.90
15203;DHT22;7702;51.046;5.184;2022-08-21T15:30:15;26.30;99.90
15203;DHT22;7702;51.046;5.184;2022-08-21T15:32:41;26.40;99.90
15203;DHT22;7702;51.046;5.184;2022-08-21T15:35:07;26.10;99.90
15203;DHT22;7702;51.046;5.184;2022-08-21T15:37:34;25.70;99.90
15203;DHT22;7702;51.046;5.184;2022-08-21T15:39:59;25.70;99.90
15203;DHT22;7702;51.046;5.184;2022-08-21T15:42:26;25.40;99.90
15203;DHT22;7702;51.046;5.184;2022-08-21T15:44:53;25.50;99.90
15203;DHT22;7702;51.046;5.184;2022-08-21T15:47:24;25.90;99.90
15203;DHT22;7702;51.046;5.184;2022-08-21T15:49:50;26.30;99.90
15203;DHT22;7702;51.046;5.184;2022-08-21T15:52:18;26.30;99.90
15203;DHT22;7702;51.046;5.184;2022-08-21T15:54:44;26.30;99.90
15203;DHT22;7702;51.046;5.184;2022-08-21T15:57:17;26.30;99.90
15203;DHT22;7702;51.046;5.184;2022-08-21T15:59:45;26.20;99.90
15203;DHT22;7702;51.046;5.184;2022-08-21T16:02:18;26.30;99.90
15203;DHT22;7702;51.046;5.184;2022-08-21T16:04:44;26.30;99.90
15203;DHT22;7702;51.046;5.184;2022-08-21T16:07:11;26.40;99.90
15203;DHT22;7702;51.046;5.184;2022-08-21T16:09:37;26.40;99.90
15203;DHT22;7702;51.046;5.184;2022-08-21T16:12:05;26.20;99.90
15203;DHT22;7702;51.046;5.184;2022-08-21T16:14:32;26.00;99.90
15203;DHT22;7702;51.046;5.184;2022-08-21T16:16:59;25.80;99.90
15203;DHT22;7702;51.046;5.184;2022-08-21T16:19:27;25.70;99.90
15203;DHT22;7702;51.046;5.184;2022-08-21T16:21:54;25.50;99.90
15203;DHT22;7702;51.046;5.184;2022-08-21T16:24:19;25.60;99.90
15203;DHT22;7702;51.046;5.184;2022-08-21T16:26:45;25.30;99.90
15203;DHT22;7702;51.046;5.184;2022-08-21T16:29:11;25.00;99.90
15203;DHT22;7702;51.046;5.184;2022-08-21T16:31:37;25.00;99.90
15203;DHT22;7702;51.046;5.184;2022-08-21T16:34:03;24.90;99.90
15203;DHT22;7702;51.046;5.184;2022-08-21T16:36:28;24.90;99.90
15203;DHT22;7702;51.046;5.184;2022-08-21T16:38:56;24.80;99.90
15203;DHT22;7702;51.046;5.184;2022-08-21T16:41:23;24.90;99.90
15203;DHT22;7702;51.046;5.184;2022-08-21T16:43:50;24.90;99.90
15203;DHT22;7702;51.046;5.184;2022-08-21T16:46:18;25.00;99.90
15203;DHT22;7702;51.046;5.184;2022-08-21T16:48:44;24.90;99.90
15203;DHT22;7702;51.046;5.184;2022-08-21T16:51:11;24.80;99.90
15203;DHT22;7702;51.046;5.184;2022-08-21T16:53:37;24.90;99.90
15203;DHT22;7702;51.046;5.184;2022-08-21T16:56:03;24.50;99.90
15203;DHT22;7702;51.046;5.184;2022-08-21T16:58:35;24.40;99.90
15203;DHT22;7702;51.046;5.184;2022-08-21T17:01:05;24.40;99.90
15203;DHT22;7702;51.046;5.184;2022-08-21T17:03:35;24.40;99.90
15203;DHT22;7702;51.046;5.184;2022-08-21T17:06:01;24.50;99.90
15203;DHT22;7702;51.046;5.184;2022-08-21T17:08:27;24.50;99.90
15203;DHT22;7702;51.046;5.184;2022-08-21T17:10:54;24.50;99.90
15203;DHT22;7702;51.046;5.184;2022-08-21T17:13:20;24.50;99.90
15203;DHT22;7702;51.046;5.184;2022-08-21T17:15:46;24.50;99.90
15203;DHT22;7702;51.046;5.184;2022-08-21T17:18:14;24.40;99.90